sensor_id;sensor_type;location;lat;lon;timestamp;P1;durP1;ratioP1;P2;durP2;ratioP2
33810;SDS011;20119;48.334;16.206;2022-11-20T00:30:09;37.50;;;21.35;;
33810;SDS011;20119;48.334;16.206;2022-11-20T00:35:21;35.90;;;21.05;;
33810;SDS011;20119;48.334;16.206;2022-11-20T00:40:23;37.60;;;21.38;;
33810;SDS011;20119;48.334;16.206;2022-11-20T00:48:02;34.47;;;21.88;;
33810;SDS011;20119;48.334;16.206;2022-11-20T00:50:29;35.72;;;21.92;;
33810;SDS011;20119;48.334;16.206;2022-11-20T00:52:56;35.72;;;22.08;;
33810;SDS011;20119;48.334;16.206;2022-11-20T00:55:23;38.50;;;23.17;;
33810;SDS011;20119;48.334;16.206;2022-11-20T01:00:25;35.92;;;22.50;;
33810;SDS011;20119;48.334;16.206;2022-11-20T01:05:29;36.63;;;22.88;;
33810;SDS011;20119;48.334;16.206;2022-11-20T01:13:10;38.50;;;22.88;;
33810;SDS011;20119;48.334;16.206;2022-11-20T01:18:31;37.40;;;22.58;;
33810;SDS011;20119;48.334;16.206;2022-11-20T01:21:01;38.38;;;23.25;;
33810;SDS011;20119;48.334;16.206;2022-11-20T01:23:32;35.42;;;22.23;;
33810;SDS011;20119;48.334;16.206;2022-11-20T02:25:34;40.10;;;23.38;;
33810;SDS011;20119;48.334;16.206;2022-11-20T02:28:03;31.03;;;17.17;;
33810;SDS011;20119;48.334;16.206;2022-11-20T02:30:31;40.35;;;22.90;;
33810;SDS011;20119;48.334;16.206;2022-11-20T02:32:58;38.28;;;23.00;;
33810;SDS011;20119;48.334;16.206;2022-11-20T02:53:29;36.40;;;22.38;;
33810;SDS011;20119;48.334;16.206;2022-11-20T02:55:56;43.03;;;23.88;;
33810;SDS011;20119;48.334;16.206;2022-11-20T02:58:23;39.08;;;23.40;;
33810;SDS011;20119;48.334;16.206;2022-11-20T03:00:50;40.60;;;23.30;;
33810;SDS011;20119;48.334;16.206;2022-11-20T03:03:18;38.08;;;22.80;;
33810;SDS011;20119;48.334;16.206;2022-11-20T03:05:45;38.05;;;23.15;;
33810;SDS011;20119;48.334;16.206;2022-11-20T03:08:12;47.17;;;25.33;;
33810;SDS011;20119;48.334;16.206;2022-11-20T03:10:40;36.65;;;22.92;;
33810;SDS011;20119;48.334;16.206;2022-11-20T03:13:07;38.70;;;23.02;;
33810;SDS011;20119;48.334;16.206;2022-11-20T03:15:35;39.08;;;23.00;;
33810;SDS011;20119;48.334;16.206;2022-11-20T03:18:02;40.60;;;24.50;;
33810;SDS011;20119;48.334;16.206;2022-11-20T03:20:30;38.75;;;24.65;;
33810;SDS011;20119;48.334;16.206;2022-11-20T03:22:59;41.63;;;23.63;;
33810;SDS011;20119;48.334;16.206;2022-11-20T03:25:26;38.38;;;23.55;;
33810;SDS011;20119;48.334;16.206;2022-11-20T03:27:54;38.95;;;23.83;;
33810;SDS011;20119;48.334;16.206;2022-11-20T03:30:22;38.22;;;23.25;;
33810;SDS011;20119;48.334;16.206;2022-11-20T03:32:49;40.33;;;23.20;;
33810;SDS011;20119;48.334;16.206;2022-11-20T03:35:19;41.25;;;23.52;;
33810;SDS011;20119;48.334;16.206;2022-11-20T03:55:55;40.80;;;24.23;;
33810;SDS011;20119;48.334;16.206;2022-11-20T03:58:22;41.35;;;24.40;;
33810;SDS011;20119;48.334;16.206;2022-11-20T04:00:49;41.20;;;24.67;;
33810;SDS011;20119;48.334;16.206;2022-11-20T04:03:16;41.40;;;24.67;;
33810;SDS011;20119;48.334;16.206;2022-11-20T04:05:42;41.83;;;24.92;;
33810;SDS011;20119;48.334;16.206;2022-11-20T04:08:10;46.40;;;26.42;;
33810;SDS011;20119;48.334;16.206;2022-11-20T04:10:36;43.40;;;25.33;;
33810;SDS011;20119;48.334;16.206;2022-11-20T04:13:05;45.28;;;25.92;;
33810;SDS011;20119;48.334;16.206;2022-11-20T04:15:31;45.83;;;25.95;;
33810;SDS011;20119;48.334;16.206;2022-11-20T04:17:58;43.78;;;25.92;;
33810;SDS011;20119;48.334;16.206;2022-11-20T04:20:25;47.90;;;25.75;;
33810;SDS011;20119;48.334;16.206;2022-11-20T04:22:52;44.15;;;25.60;;
33810;SDS011;20119;48.334;16.206;2022-11-20T04:25:20;43.83;;;24.95;;
33810;SDS011;20119;48.334;16.206;2022-11-20T04:27:47;44.17;;;25.73;;
33810;SDS011;20119;48.334;16.206;2022-11-20T04:30:15;45.65;;;25.85;;
33810;SDS011;20119;48.334;16.206;2022-11-20T04:32:42;45.00;;;26.52;;
33810;SDS011;20119;48.334;16.206;2022-11-20T04:35:09;45.13;;;25.75;;
33810;SDS011;20119;48.334;16.206;2022-11-20T04:37:36;45.65;;;26.35;;
33810;SDS011;20119;48.334;16.206;2022-11-20T04:40:03;45.13;;;25.52;;
33810;SDS011;20119;48.334;16.206;2022-11-20T04:42:31;44.22;;;25.90;;
33810;SDS011;20119;48.334;16.206;2022-11-20T04:44:58;43.67;;;25.38;;
33810;SDS011;20119;48.334;16.206;2022-11-20T04:47:27;47.88;;;26.50;;
33810;SDS011;20119;48.334;16.206;2022-11-20T04:49:54;45.25;;;25.40;;
33810;SDS011;20119;48.334;16.206;2022-11-20T04:52:21;44.35;;;25.73;;
33810;SDS011;20119;48.334;16.206;2022-11-20T04:57:22;42.60;;;25.70;;
33810;SDS011;20119;48.334;16.206;2022-11-20T05:02:24;43.30;;;25.73;;
33810;SDS011;20119;48.334;16.206;2022-11-20T05:04:53;45.05;;;25.88;;
33810;SDS011;20119;48.334;16.206;2022-11-20T05:12:31;44.47;;;25.67;;
33810;SDS011;20119;48.334;16.206;2022-11-20T05:25:20;48.10;;;26.73;;
33810;SDS011;20119;48.334;16.206;2022-11-20T05:30:23;43.35;;;25.23;;
33810;SDS011;20119;48.334;16.206;2022-11-20T05:35:25;43.95;;;25.70;;
33810;SDS011;20119;48.334;16.206;2022-11-20T05:37:52;44.20;;;26.27;;
33810;SDS011;20119;48.334;16.206;2022-11-20T05:40:19;46.40;;;26.25;;
33810;SDS011;20119;48.334;16.206;2022-11-20T05:42:47;42.97;;;25.65;;
33810;SDS011;20119;48.334;16.206;2022-11-20T05:45:14;42.53;;;25.52;;
33810;SDS011;20119;48.334;16.206;2022-11-20T05:50:16;43.13;;;25.50;;
33810;SDS011;20119;48.334;16.206;2022-11-20T05:57:55;45.60;;;26.27;;
33810;SDS011;20119;48.334;16.206;2022-11-20T06:00:22;47.67;;;26.55;;
33810;SDS011;20119;48.334;16.206;2022-11-20T06:02:49;45.78;;;26.95;;
33810;SDS011;20119;48.334;16.206;2022-11-20T06:10:20;47.45;;;27.52;;
33810;SDS011;20119;48.334;16.206;2022-11-20T06:12:47;49.17;;;28.73;;
33810;SDS011;20119;48.334;16.206;2022-11-20T06:17:51;50.28;;;27.55;;
33810;SDS011;20119;48.334;16.206;2022-11-20T06:20:18;50.85;;;28.40;;
33810;SDS011;20119;48.334;16.206;2022-11-20T06:27:48;53.13;;;28.23;;
33810;SDS011;20119;48.334;16.206;2022-11-20T06:35:20;50.47;;;27.55;;
33810;SDS011;20119;48.334;16.206;2022-11-20T06:37:47;47.63;;;27.33;;
33810;SDS011;20119;48.334;16.206;2022-11-20T06:40:14;48.25;;;28.00;;
33810;SDS011;20119;48.334;16.206;2022-11-20T06:42:41;48.03;;;27.75;;
33810;SDS011;20119;48.334;16.206;2022-11-20T06:58:09;53.30;;;28.95;;
33810;SDS011;20119;48.334;16.206;2022-11-20T07:00:45;48.55;;;28.20;;
33810;SDS011;20119;48.334;16.206;2022-11-20T07:03:12;50.03;;;27.48;;
33810;SDS011;20119;48.334;16.206;2022-11-20T07:05:39;50.25;;;28.95;;
33810;SDS011;20119;48.334;16.206;2022-11-20T07:08:06;49.35;;;28.17;;
33810;SDS011;20119;48.334;16.206;2022-11-20T07:13:10;50.38;;;28.60;;
33810;SDS011;20119;48.334;16.206;2022-11-20T07:20:47;50.08;;;28.48;;
33810;SDS011;20119;48.334;16.206;2022-11-20T07:23:14;51.88;;;28.35;;
33810;SDS011;20119;48.334;16.206;2022-11-20T07:33:22;47.85;;;27.50;;
33810;SDS011;20119;48.334;16.206;2022-11-20T07:46:09;56.67;;;33.92;;
33810;SDS011;20119;48.334;16.206;2022-11-20T07:48:38;51.38;;;29.77;;
33810;SDS011;20119;48.334;16.206;2022-11-20T07:51:05;46.33;;;28.33;;
33810;SDS011;20119;48.334;16.206;2022-11-20T07:56:08;50.50;;;27.88;;
33810;SDS011;20119;48.334;16.206;2022-11-20T07:58:35;50.15;;;29.17;;
33810;SDS011;20119;48.334;16.206;2022-11-20T08:01:02;48.63;;;28.02;;
33810;SDS011;20119;48.334;16.206;2022-11-20T08:08:34;48.47;;;27.23;;
33810;SDS011;20119;48.334;16.206;2022-11-20T08:16:25;47.53;;;26.67;;
33810;SDS011;20119;48.334;16.206;2022-11-20T08:18:52;49.88;;;28.90;;
33810;SDS011;20119;48.334;16.206;2022-11-20T08:23:55;45.30;;;26.60;;
33810;SDS011;20119;48.334;16.206;2022-11-20T08:26:23;46.05;;;27.40;;
33810;SDS011;20119;48.334;16.206;2022-11-20T08:28:52;47.50;;;26.50;;
33810;SDS011;20119;48.334;16.206;2022-11-20T08:36:32;46.75;;;27.73;;
33810;SDS011;20119;48.334;16.206;2022-11-20T08:41:37;47.03;;;28.30;;
33810;SDS011;20119;48.334;16.206;2022-11-20T08:54:25;49.92;;;28.42;;
33810;SDS011;20119;48.334;16.206;2022-11-20T08:59:29;50.35;;;29.13;;
33810;SDS011;20119;48.334;16.206;2022-11-20T09:01:57;55.90;;;30.73;;
33810;SDS011;20119;48.334;16.206;2022-11-20T09:04:24;52.17;;;28.88;;
33810;SDS011;20119;48.334;16.206;2022-11-20T09:09:26;50.63;;;30.17;;
33810;SDS011;20119;48.334;16.206;2022-11-20T09:11:53;54.00;;;30.08;;
33810;SDS011;20119;48.334;16.206;2022-11-20T09:14:20;52.60;;;29.70;;
33810;SDS011;20119;48.334;16.206;2022-11-20T09:16:51;55.53;;;30.95;;
33810;SDS011;20119;48.334;16.206;2022-11-20T09:19:17;57.22;;;30.80;;
33810;SDS011;20119;48.334;16.206;2022-11-20T09:24:20;55.75;;;30.45;;
33810;SDS011;20119;48.334;16.206;2022-11-20T09:26:47;54.60;;;30.92;;
33810;SDS011;20119;48.334;16.206;2022-11-20T09:29:13;58.38;;;31.73;;
33810;SDS011;20119;48.334;16.206;2022-11-20T09:31:40;56.20;;;31.90;;
33810;SDS011;20119;48.334;16.206;2022-11-20T09:39:20;56.75;;;30.08;;
33810;SDS011;20119;48.334;16.206;2022-11-20T09:41:56;53.88;;;28.88;;
33810;SDS011;20119;48.334;16.206;2022-11-20T09:47:22;54.65;;;30.85;;
33810;SDS011;20119;48.334;16.206;2022-11-20T09:50:02;57.10;;;30.50;;
33810;SDS011;20119;48.334;16.206;2022-11-20T09:52:45;56.30;;;30.15;;
33810;SDS011;20119;48.334;16.206;2022-11-20T09:55:22;57.67;;;30.70;;
33810;SDS011;20119;48.334;16.206;2022-11-20T09:57:51;53.75;;;30.58;;
33810;SDS011;20119;48.334;16.206;2022-11-20T10:00:18;60.58;;;31.95;;
33810;SDS011;20119;48.334;16.206;2022-11-20T10:02:47;53.25;;;30.70;;
33810;SDS011;20119;48.334;16.206;2022-11-20T10:05:18;52.45;;;30.92;;
33810;SDS011;20119;48.334;16.206;2022-11-20T10:07:52;63.15;;;33.42;;
33810;SDS011;20119;48.334;16.206;2022-11-20T10:10:40;54.20;;;30.48;;
33810;SDS011;20119;48.334;16.206;2022-11-20T10:13:20;55.95;;;31.38;;
33810;SDS011;20119;48.334;16.206;2022-11-20T10:16:01;53.72;;;31.27;;
33810;SDS011;20119;48.334;16.206;2022-11-20T10:18:39;57.60;;;33.03;;
33810;SDS011;20119;48.334;16.206;2022-11-20T10:21:17;52.60;;;30.52;;
33810;SDS011;20119;48.334;16.206;2022-11-20T10:24:03;56.45;;;32.30;;
33810;SDS011;20119;48.334;16.206;2022-11-20T10:26:56;57.40;;;32.33;;
33810;SDS011;20119;48.334;16.206;2022-11-20T10:29:28;53.42;;;31.20;;
33810;SDS011;20119;48.334;16.206;2022-11-20T10:34:43;54.53;;;31.60;;
33810;SDS011;20119;48.334;16.206;2022-11-20T10:39:51;52.67;;;30.00;;
33810;SDS011;20119;48.334;16.206;2022-11-20T10:42:26;53.15;;;31.20;;
33810;SDS011;20119;48.334;16.206;2022-11-20T10:44:58;51.70;;;30.88;;
33810;SDS011;20119;48.334;16.206;2022-11-20T10:52:42;51.15;;;29.73;;
33810;SDS011;20119;48.334;16.206;2022-11-20T10:55:24;49.72;;;30.17;;
33810;SDS011;20119;48.334;16.206;2022-11-20T10:57:59;49.47;;;29.90;;
33810;SDS011;20119;48.334;16.206;2022-11-20T11:00:32;50.80;;;30.60;;
33810;SDS011;20119;48.334;16.206;2022-11-20T11:10:46;50.08;;;28.50;;
33810;SDS011;20119;48.334;16.206;2022-11-20T11:21:05;48.63;;;28.92;;
33810;SDS011;20119;48.334;16.206;2022-11-20T11:23:33;46.35;;;28.45;;
33810;SDS011;20119;48.334;16.206;2022-11-20T11:31:21;47.63;;;28.45;;
33810;SDS011;20119;48.334;16.206;2022-11-20T11:33:49;48.72;;;28.40;;
33810;SDS011;20119;48.334;16.206;2022-11-20T11:36:19;48.85;;;29.65;;
33810;SDS011;20119;48.334;16.206;2022-11-20T11:38:50;50.28;;;29.58;;
33810;SDS011;20119;48.334;16.206;2022-11-20T11:41:19;49.55;;;29.48;;
33810;SDS011;20119;48.334;16.206;2022-11-20T11:43:51;49.63;;;30.10;;
33810;SDS011;20119;48.334;16.206;2022-11-20T11:46:36;50.35;;;29.70;;
33810;SDS011;20119;48.334;16.206;2022-11-20T11:49:14;54.03;;;31.95;;
33810;SDS011;20119;48.334;16.206;2022-11-20T11:51:47;49.33;;;31.35;;
33810;SDS011;20119;48.334;16.206;2022-11-20T11:54:26;48.55;;;29.67;;
33810;SDS011;20119;48.334;16.206;2022-11-20T11:56:58;49.35;;;30.23;;
33810;SDS011;20119;48.334;16.206;2022-11-20T11:59:28;45.63;;;29.20;;
33810;SDS011;20119;48.334;16.206;2022-11-20T12:02:11;45.13;;;28.52;;
33810;SDS011;20119;48.334;16.206;2022-11-20T12:04:52;46.63;;;27.50;;
33810;SDS011;20119;48.334;16.206;2022-11-20T12:07:27;42.90;;;27.40;;
33810;SDS011;20119;48.334;16.206;2022-11-20T12:10:04;43.00;;;26.05;;
33810;SDS011;20119;48.334;16.206;2022-11-20T12:15:16;50.25;;;29.38;;
33810;SDS011;20119;48.334;16.206;2022-11-20T12:20:28;44.15;;;26.92;;
33810;SDS011;20119;48.334;16.206;2022-11-20T12:25:40;42.33;;;26.42;;
33810;SDS011;20119;48.334;16.206;2022-11-20T12:30:48;43.85;;;29.05;;
33810;SDS011;20119;48.334;16.206;2022-11-20T12:33:27;42.38;;;27.25;;
33810;SDS011;20119;48.334;16.206;2022-11-20T12:41:22;45.58;;;27.75;;
33810;SDS011;20119;48.334;16.206;2022-11-20T12:44:24;43.95;;;28.05;;
33810;SDS011;20119;48.334;16.206;2022-11-20T12:47:21;41.15;;;27.17;;
33810;SDS011;20119;48.334;16.206;2022-11-20T12:52:37;50.13;;;32.40;;
33810;SDS011;20119;48.334;16.206;2022-11-20T12:55:23;44.38;;;27.67;;
33810;SDS011;20119;48.334;16.206;2022-11-20T12:57:59;45.03;;;29.13;;
33810;SDS011;20119;48.334;16.206;2022-11-20T13:00:29;44.25;;;28.80;;
33810;SDS011;20119;48.334;16.206;2022-11-20T13:03:06;50.13;;;29.65;;
33810;SDS011;20119;48.334;16.206;2022-11-20T13:05:53;40.38;;;26.52;;
33810;SDS011;20119;48.334;16.206;2022-11-20T13:08:27;49.65;;;29.25;;
33810;SDS011;20119;48.334;16.206;2022-11-20T13:10:59;43.15;;;27.55;;
33810;SDS011;20119;48.334;16.206;2022-11-20T13:13:36;44.08;;;27.80;;
33810;SDS011;20119;48.334;16.206;2022-11-20T13:16:30;43.55;;;27.60;;
33810;SDS011;20119;48.334;16.206;2022-11-20T13:19:03;48.63;;;28.92;;
33810;SDS011;20119;48.334;16.206;2022-11-20T13:21:35;41.88;;;26.92;;
33810;SDS011;20119;48.334;16.206;2022-11-20T13:24:04;40.60;;;26.02;;
33810;SDS011;20119;48.334;16.206;2022-11-20T13:29:09;45.65;;;27.52;;
33810;SDS011;20119;48.334;16.206;2022-11-20T13:31:39;44.63;;;28.67;;
33810;SDS011;20119;48.334;16.206;2022-11-20T13:39:24;39.28;;;25.63;;
33810;SDS011;20119;48.334;16.206;2022-11-20T13:44:23;38.92;;;24.58;;
33810;SDS011;20119;48.334;16.206;2022-11-20T13:46:52;36.15;;;24.35;;
33810;SDS011;20119;48.334;16.206;2022-11-20T13:49:21;38.55;;;24.60;;
33810;SDS011;20119;48.334;16.206;2022-11-20T13:54:42;37.80;;;24.60;;
33810;SDS011;20119;48.334;16.206;2022-11-20T13:59:56;37.17;;;23.95;;
33810;SDS011;20119;48.334;16.206;2022-11-20T14:02:27;38.08;;;24.73;;
33810;SDS011;20119;48.334;16.206;2022-11-20T14:04:57;45.67;;;29.33;;
33810;SDS011;20119;48.334;16.206;2022-11-20T14:07:31;45.40;;;27.60;;
33810;SDS011;20119;48.334;16.206;2022-11-20T14:10:01;44.22;;;29.60;;
33810;SDS011;20119;48.334;16.206;2022-11-20T14:12:29;47.17;;;31.08;;
33810;SDS011;20119;48.334;16.206;2022-11-20T14:14:59;56.45;;;35.08;;
33810;SDS011;20119;48.334;16.206;2022-11-20T14:17:29;41.75;;;27.52;;
33810;SDS011;20119;48.334;16.206;2022-11-20T14:22:26;40.65;;;26.08;;
33810;SDS011;20119;48.334;16.206;2022-11-20T14:25:00;128.82;;;66.65;;
33810;SDS011;20119;48.334;16.206;2022-11-20T14:27:32;41.20;;;28.38;;
33810;SDS011;20119;48.334;16.206;2022-11-20T14:30:04;48.40;;;30.33;;
33810;SDS011;20119;48.334;16.206;2022-11-20T14:32:32;57.35;;;34.03;;
33810;SDS011;20119;48.334;16.206;2022-11-20T14:37:38;91.25;;;62.85;;
33810;SDS011;20119;48.334;16.206;2022-11-20T14:42:43;122.75;;;64.22;;
33810;SDS011;20119;48.334;16.206;2022-11-20T14:45:12;88.45;;;49.80;;
33810;SDS011;20119;48.334;16.206;2022-11-20T14:47:39;52.13;;;31.98;;
33810;SDS011;20119;48.334;16.206;2022-11-20T14:52:49;55.60;;;33.42;;
33810;SDS011;20119;48.334;16.206;2022-11-20T14:55:24;55.28;;;33.30;;
33810;SDS011;20119;48.334;16.206;2022-11-20T15:03:13;56.60;;;35.55;;
33810;SDS011;20119;48.334;16.206;2022-11-20T15:08:17;57.53;;;34.72;;
33810;SDS011;20119;48.334;16.206;2022-11-20T15:10:45;60.35;;;36.72;;
33810;SDS011;20119;48.334;16.206;2022-11-20T15:18:27;57.17;;;34.90;;
33810;SDS011;20119;48.334;16.206;2022-11-20T15:20:58;175.77;;;68.45;;
33810;SDS011;20119;48.334;16.206;2022-11-20T15:23:28;106.60;;;52.75;;
33810;SDS011;20119;48.334;16.206;2022-11-20T15:25:55;192.52;;;91.60;;
33810;SDS011;20119;48.334;16.206;2022-11-20T15:30:54;375.50;;;163.60;;
33810;SDS011;20119;48.334;16.206;2022-11-20T15:33:22;304.67;;;123.72;;
33810;SDS011;20119;48.334;16.206;2022-11-20T15:36:09;243.10;;;101.47;;
33810;SDS011;20119;48.334;16.206;2022-11-20T15:41:11;81.53;;;45.75;;
33810;SDS011;20119;48.334;16.206;2022-11-20T15:43:38;105.65;;;58.10;;
33810;SDS011;20119;48.334;16.206;2022-11-20T15:48:34;65.15;;;37.90;;
33810;SDS011;20119;48.334;16.206;2022-11-20T15:51:06;69.30;;;40.03;;
33810;SDS011;20119;48.334;16.206;2022-11-20T15:56:21;78.85;;;44.28;;
33810;SDS011;20119;48.334;16.206;2022-11-20T15:58:48;77.40;;;43.80;;
33810;SDS011;20119;48.334;16.206;2022-11-20T16:01:15;75.25;;;40.42;;
33810;SDS011;20119;48.334;16.206;2022-11-20T16:03:44;74.07;;;42.03;;
33810;SDS011;20119;48.334;16.206;2022-11-20T16:06:12;75.55;;;43.10;;
33810;SDS011;20119;48.334;16.206;2022-11-20T16:08:41;85.30;;;48.53;;
33810;SDS011;20119;48.334;16.206;2022-11-20T16:11:09;100.20;;;56.28;;
33810;SDS011;20119;48.334;16.206;2022-11-20T16:13:38;163.80;;;79.88;;
33810;SDS011;20119;48.334;16.206;2022-11-20T16:16:37;121.22;;;62.25;;
33810;SDS011;20119;48.334;16.206;2022-11-20T16:24:50;85.97;;;48.33;;
33810;SDS011;20119;48.334;16.206;2022-11-20T16:27:26;84.28;;;48.42;;
33810;SDS011;20119;48.334;16.206;2022-11-20T16:29:53;81.68;;;47.45;;
33810;SDS011;20119;48.334;16.206;2022-11-20T16:34:55;81.30;;;48.08;;
33810;SDS011;20119;48.334;16.206;2022-11-20T16:37:22;91.82;;;51.95;;
33810;SDS011;20119;48.334;16.206;2022-11-20T16:39:50;95.43;;;57.15;;
33810;SDS011;20119;48.334;16.206;2022-11-20T16:42:17;91.05;;;54.05;;
33810;SDS011;20119;48.334;16.206;2022-11-20T16:44:45;113.47;;;69.53;;
33810;SDS011;20119;48.334;16.206;2022-11-20T16:47:11;102.38;;;59.95;;
33810;SDS011;20119;48.334;16.206;2022-11-20T16:49:38;98.90;;;58.50;;
33810;SDS011;20119;48.334;16.206;2022-11-20T16:54:41;109.45;;;60.60;;
33810;SDS011;20119;48.334;16.206;2022-11-20T16:59:44;81.63;;;46.80;;
33810;SDS011;20119;48.334;16.206;2022-11-20T17:02:11;86.22;;;49.67;;
33810;SDS011;20119;48.334;16.206;2022-11-20T17:04:38;158.60;;;94.68;;
33810;SDS011;20119;48.334;16.206;2022-11-20T17:07:05;106.53;;;60.45;;
33810;SDS011;20119;48.334;16.206;2022-11-20T17:12:08;86.35;;;51.38;;
33810;SDS011;20119;48.334;16.206;2022-11-20T17:14:35;87.43;;;52.20;;
33810;SDS011;20119;48.334;16.206;2022-11-20T17:17:03;96.57;;;55.92;;
33810;SDS011;20119;48.334;16.206;2022-11-20T17:19:30;102.20;;;59.67;;
33810;SDS011;20119;48.334;16.206;2022-11-20T17:21:57;133.98;;;74.05;;
33810;SDS011;20119;48.334;16.206;2022-11-20T17:32:11;219.38;;;119.82;;
33810;SDS011;20119;48.334;16.206;2022-11-20T17:34:39;97.93;;;57.25;;
33810;SDS011;20119;48.334;16.206;2022-11-20T17:37:06;80.18;;;47.42;;
33810;SDS011;20119;48.334;16.206;2022-11-20T17:39:33;74.03;;;44.63;;
33810;SDS011;20119;48.334;16.206;2022-11-20T17:42:00;112.53;;;65.00;;
33810;SDS011;20119;48.334;16.206;2022-11-20T17:44:44;177.18;;;97.25;;
33810;SDS011;20119;48.334;16.206;2022-11-20T17:47:12;104.10;;;60.30;;
33810;SDS011;20119;48.334;16.206;2022-11-20T17:49:40;116.18;;;63.65;;
33810;SDS011;20119;48.334;16.206;2022-11-20T17:54:42;105.18;;;62.30;;
33810;SDS011;20119;48.334;16.206;2022-11-20T17:59:44;224.70;;;137.18;;
33810;SDS011;20119;48.334;16.206;2022-11-20T18:02:12;92.60;;;54.97;;
33810;SDS011;20119;48.334;16.206;2022-11-20T18:04:39;93.85;;;55.13;;
33810;SDS011;20119;48.334;16.206;2022-11-20T18:07:06;81.03;;;47.15;;
33810;SDS011;20119;48.334;16.206;2022-11-20T18:09:33;80.10;;;46.80;;
33810;SDS011;20119;48.334;16.206;2022-11-20T18:14:35;90.55;;;51.15;;
33810;SDS011;20119;48.334;16.206;2022-11-20T18:17:03;87.55;;;53.47;;
33810;SDS011;20119;48.334;16.206;2022-11-20T18:19:33;96.75;;;55.13;;
33810;SDS011;20119;48.334;16.206;2022-11-20T18:22:01;96.45;;;55.92;;
33810;SDS011;20119;48.334;16.206;2022-11-20T18:29:32;84.88;;;52.40;;
33810;SDS011;20119;48.334;16.206;2022-11-20T18:39:41;154.98;;;94.60;;
33810;SDS011;20119;48.334;16.206;2022-11-20T18:42:09;110.25;;;61.63;;
33810;SDS011;20119;48.334;16.206;2022-11-20T18:44:55;125.47;;;71.97;;
33810;SDS011;20119;48.334;16.206;2022-11-20T18:47:24;113.47;;;66.88;;
33810;SDS011;20119;48.334;16.206;2022-11-20T18:49:54;119.30;;;68.93;;
33810;SDS011;20119;48.334;16.206;2022-11-20T18:57:34;135.63;;;74.90;;
33810;SDS011;20119;48.334;16.206;2022-11-20T19:00:02;136.13;;;73.30;;
33810;SDS011;20119;48.334;16.206;2022-11-20T19:07:41;153.70;;;73.63;;
33810;SDS011;20119;48.334;16.206;2022-11-20T19:10:08;143.43;;;73.38;;
33810;SDS011;20119;48.334;16.206;2022-11-20T19:12:36;157.85;;;74.78;;
33810;SDS011;20119;48.334;16.206;2022-11-20T19:15:04;147.55;;;75.55;;
33810;SDS011;20119;48.334;16.206;2022-11-20T19:25:17;83.88;;;51.35;;
33810;SDS011;20119;48.334;16.206;2022-11-20T19:30:21;84.88;;;53.10;;
33810;SDS011;20119;48.334;16.206;2022-11-20T19:35:23;82.20;;;48.70;;
33810;SDS011;20119;48.334;16.206;2022-11-20T19:48:33;53.03;;;33.95;;
33810;SDS011;20119;48.334;16.206;2022-11-20T19:51:10;54.90;;;35.08;;
33810;SDS011;20119;48.334;16.206;2022-11-20T19:53:38;50.60;;;32.85;;
33810;SDS011;20119;48.334;16.206;2022-11-20T19:56:05;49.90;;;32.42;;
33810;SDS011;20119;48.334;16.206;2022-11-20T19:58:32;42.58;;;28.10;;
33810;SDS011;20119;48.334;16.206;2022-11-20T20:01:04;37.83;;;25.55;;
33810;SDS011;20119;48.334;16.206;2022-11-20T20:03:33;32.00;;;22.58;;
33810;SDS011;20119;48.334;16.206;2022-11-20T20:08:36;23.35;;;15.80;;
33810;SDS011;20119;48.334;16.206;2022-11-20T20:11:08;22.20;;;14.63;;
33810;SDS011;20119;48.334;16.206;2022-11-20T20:13:37;20.48;;;13.73;;
33810;SDS011;20119;48.334;16.206;2022-11-20T20:16:07;19.48;;;13.90;;
33810;SDS011;20119;48.334;16.206;2022-11-20T20:18:36;19.95;;;14.07;;
33810;SDS011;20119;48.334;16.206;2022-11-20T20:21:04;24.05;;;14.00;;
33810;SDS011;20119;48.334;16.206;2022-11-20T20:23:31;19.80;;;13.27;;
33810;SDS011;20119;48.334;16.206;2022-11-20T20:25:59;19.33;;;13.23;;
33810;SDS011;20119;48.334;16.206;2022-11-20T20:28:27;18.77;;;13.05;;
33810;SDS011;20119;48.334;16.206;2022-11-20T20:33:29;17.77;;;12.05;;
33810;SDS011;20119;48.334;16.206;2022-11-20T20:38:33;18.65;;;13.32;;
33810;SDS011;20119;48.334;16.206;2022-11-20T20:48:43;20.52;;;13.63;;
33810;SDS011;20119;48.334;16.206;2022-11-20T20:51:10;19.48;;;13.30;;
33810;SDS011;20119;48.334;16.206;2022-11-20T20:53:38;19.65;;;13.35;;
33810;SDS011;20119;48.334;16.206;2022-11-20T21:01:14;19.77;;;12.35;;
33810;SDS011;20119;48.334;16.206;2022-11-20T21:03:42;18.80;;;13.07;;
33810;SDS011;20119;48.334;16.206;2022-11-20T21:06:09;17.60;;;11.65;;
33810;SDS011;20119;48.334;16.206;2022-11-20T21:08:39;15.75;;;11.02;;
33810;SDS011;20119;48.334;16.206;2022-11-20T21:11:07;14.45;;;10.73;;
33810;SDS011;20119;48.334;16.206;2022-11-20T21:13:35;16.83;;;10.90;;
33810;SDS011;20119;48.334;16.206;2022-11-20T21:29:01;12.63;;;9.50;;
33810;SDS011;20119;48.334;16.206;2022-11-20T21:34:04;13.18;;;9.45;;
33810;SDS011;20119;48.334;16.206;2022-11-20T21:36:32;12.65;;;9.23;;
33810;SDS011;20119;48.334;16.206;2022-11-20T21:38:59;14.60;;;9.43;;
33810;SDS011;20119;48.334;16.206;2022-11-20T21:41:26;14.23;;;9.48;;
33810;SDS011;20119;48.334;16.206;2022-11-20T21:43:55;11.35;;;8.88;;
33810;SDS011;20119;48.334;16.206;2022-11-20T21:46:25;12.02;;;9.23;;
33810;SDS011;20119;48.334;16.206;2022-11-20T21:48:52;12.60;;;9.23;;
33810;SDS011;20119;48.334;16.206;2022-11-20T21:53:54;13.43;;;9.20;;
33810;SDS011;20119;48.334;16.206;2022-11-20T21:56:22;12.25;;;9.15;;
33810;SDS011;20119;48.334;16.206;2022-11-20T21:58:50;13.43;;;9.48;;
33810;SDS011;20119;48.334;16.206;2022-11-20T22:01:19;11.98;;;9.68;;
33810;SDS011;20119;48.334;16.206;2022-11-20T22:14:10;15.15;;;10.75;;
33810;SDS011;20119;48.334;16.206;2022-11-20T22:19:21;13.90;;;9.98;;
33810;SDS011;20119;48.334;16.206;2022-11-20T22:21:48;14.52;;;10.73;;
33810;SDS011;20119;48.334;16.206;2022-11-20T22:24:16;15.95;;;9.65;;
33810;SDS011;20119;48.334;16.206;2022-11-20T22:26:44;18.17;;;12.40;;
33810;SDS011;20119;48.334;16.206;2022-11-20T22:29:13;21.33;;;14.38;;
33810;SDS011;20119;48.334;16.206;2022-11-20T22:34:14;21.75;;;15.27;;
33810;SDS011;20119;48.334;16.206;2022-11-20T22:36:40;24.85;;;17.30;;
33810;SDS011;20119;48.334;16.206;2022-11-20T22:46:54;20.83;;;15.77;;
33810;SDS011;20119;48.334;16.206;2022-11-20T22:54:32;23.48;;;15.68;;
33810;SDS011;20119;48.334;16.206;2022-11-20T22:56:58;32.00;;;21.08;;
33810;SDS011;20119;48.334;16.206;2022-11-20T23:04:37;37.30;;;23.05;;
33810;SDS011;20119;48.334;16.206;2022-11-20T23:07:04;29.73;;;19.77;;
33810;SDS011;20119;48.334;16.206;2022-11-20T23:09:31;30.55;;;20.23;;
33810;SDS011;20119;48.334;16.206;2022-11-20T23:11:58;34.75;;;21.58;;
33810;SDS011;20119;48.334;16.206;2022-11-20T23:14:25;37.05;;;22.08;;
33810;SDS011;20119;48.334;16.206;2022-11-20T23:16:52;34.55;;;21.33;;
33810;SDS011;20119;48.334;16.206;2022-11-20T23:19:18;27.42;;;18.67;;
33810;SDS011;20119;48.334;16.206;2022-11-20T23:24:23;28.73;;;19.27;;